createdAt,value
2022-09-12T00:00:55.247Z,20.99
2022-09-12T00:02:55.562Z,21.01
2022-09-12T00:05:55.892Z,20.95
2022-09-12T00:08:55.158Z,20.95
2022-09-12T00:11:55.153Z,21.01
2022-09-12T00:13:55.594Z,21.06
2022-09-12T00:15:55.590Z,21.03
2022-09-12T00:18:56.179Z,20.95
2022-09-12T00:21:55.156Z,20.92
2022-09-12T00:23:55.407Z,20.89
2022-09-12T00:26:55.170Z,20.79
2022-09-12T00:28:55.173Z,20.67
2022-09-12T00:30:55.526Z,20.72
2022-09-12T00:33:55.206Z,20.77
2022-09-12T00:35:55.664Z,20.69
2022-09-12T00:38:56.045Z,20.69
2022-09-12T00:41:55.590Z,20.64
2022-09-12T00:44:55.187Z,20.64
2022-09-12T00:46:55.169Z,20.63
2022-09-12T00:48:55.224Z,20.57
2022-09-12T00:51:55.170Z,20.56
2022-09-12T00:53:55.169Z,20.58
2022-09-12T00:56:55.689Z,20.48
2022-09-12T00:58:55.812Z,20.5
2022-09-12T01:00:56.077Z,20.44
2022-09-12T01:03:55.178Z,20.46
2022-09-12T01:05:55.197Z,20.4
2022-09-12T01:07:55.691Z,20.39
2022-09-12T01:09:55.862Z,20.44
2022-09-12T01:12:55.214Z,20.46
2022-09-12T01:14:55.894Z,20.48
2022-09-12T01:17:55.166Z,20.35
2022-09-12T01:19:55.192Z,20.32
2022-09-12T01:22:55.200Z,20.36
2022-09-12T01:24:55.219Z,20.32
2022-09-12T01:27:55.261Z,20.27
2022-09-12T01:29:55.545Z,20.25
2022-09-12T01:32:55.911Z,20.28
2022-09-12T01:35:55.361Z,20.27
2022-09-12T01:37:55.522Z,20.25
2022-09-12T01:40:55.639Z,20.35
2022-09-12T01:43:56.060Z,20.35
2022-09-12T01:46:55.199Z,20.34
2022-09-12T01:48:55.577Z,20.29
2022-09-12T01:51:55.324Z,20.18
2022-09-12T01:54:55.285Z,20.29
2022-09-12T01:56:56.028Z,20.23
2022-09-12T01:59:55.213Z,20.15
2022-09-12T02:02:54.279Z,20.18
2022-09-12T02:04:55.688Z,20.18
2022-09-12T02:07:55.188Z,20.18
2022-09-12T02:09:55.226Z,20.19
2022-09-12T02:12:55.660Z,20.29
2022-09-12T02:15:55.757Z,20.27
2022-09-12T02:18:55.240Z,20.2
2022-09-12T02:20:55.252Z,20.12
2022-09-12T02:22:55.730Z,20.12
2022-09-12T02:24:55.808Z,20.15
2022-09-12T02:27:56.094Z,20.23
2022-09-12T02:30:55.249Z,20.17
2022-09-12T02:33:55.213Z,20.1
2022-09-12T02:35:55.234Z,20.03
2022-09-12T02:38:55.199Z,19.99
2022-09-12T02:40:55.815Z,19.96
2022-09-12T02:43:55.273Z,19.96
2022-09-12T02:46:55.197Z,19.89
2022-09-12T02:49:55.211Z,19.89
2022-09-12T02:51:55.527Z,19.95
2022-09-12T02:53:56.082Z,19.98
2022-09-12T02:56:55.437Z,19.99
2022-09-12T02:59:55.243Z,20.03
2022-09-12T03:01:55.718Z,20.02
2022-09-12T03:04:55.221Z,20.07
2022-09-12T03:06:55.226Z,20.04
2022-09-12T03:08:55.817Z,19.96
2022-09-12T03:11:54.274Z,19.93
2022-09-12T03:13:55.228Z,19.9
2022-09-12T03:15:55.315Z,19.9
2022-09-12T03:17:55.454Z,19.85
2022-09-12T03:20:55.210Z,19.9
2022-09-12T03:23:55.360Z,19.93
2022-09-12T03:27:55.497Z,19.92
2022-09-12T03:30:55.400Z,19.89
2022-09-12T03:33:55.246Z,19.81
2022-09-12T03:36:55.624Z,19.69
2022-09-12T03:39:55.262Z,19.74
2022-09-12T03:41:55.490Z,19.73
2022-09-12T03:43:56.007Z,19.67
2022-09-12T03:46:55.218Z,19.69
2022-09-12T03:49:55.227Z,19.65
2022-09-12T03:51:55.235Z,19.7
2022-09-12T03:54:55.214Z,19.66
2022-09-12T03:57:55.269Z,19.62
2022-09-12T03:59:56.030Z,19.57
2022-09-12T04:03:55.298Z,19.57
2022-09-12T04:05:55.394Z,19.56
2022-09-12T04:09:55.707Z,19.51
2022-09-12T04:12:55.235Z,19.44
2022-09-12T04:14:55.254Z,19.42
2022-09-12T04:17:55.203Z,19.36
2022-09-12T04:20:55.204Z,19.44
2022-09-12T04:23:55.757Z,19.46
2022-09-12T04:26:55.668Z,19.36
2022-09-12T04:29:54.312Z,19.29
2022-09-12T04:31:55.210Z,19.27
2022-09-12T04:33:55.545Z,19.28
2022-09-12T04:36:55.224Z,19.27
2022-09-12T04:39:54.318Z,19.24
2022-09-12T04:41:55.189Z,19.21
2022-09-12T04:43:55.608Z,19.25
2022-09-12T04:46:55.298Z,19.33
2022-09-12T04:49:55.221Z,19.35
2022-09-12T04:51:55.951Z,19.31
2022-09-12T04:54:55.743Z,19.34
2022-09-12T04:57:55.248Z,19.37
2022-09-12T04:59:55.531Z,19.33
2022-09-12T05:02:56.162Z,19.29
2022-09-12T05:05:56.497Z,19.18
2022-09-12T05:08:55.630Z,19.17
2022-09-12T05:12:04.467Z,19.18
2022-09-12T05:14:55.229Z,19.21
2022-09-12T05:16:55.724Z,19.14
2022-09-12T05:19:55.244Z,19.03
2022-09-12T05:21:55.673Z,19.02
2022-09-12T05:24:55.259Z,18.98
2022-09-12T05:26:55.938Z,18.98
2022-09-12T05:29:56.086Z,18.98
2022-09-12T05:32:55.858Z,18.95
2022-09-12T05:34:56.028Z,18.95
2022-09-12T05:37:56.361Z,18.95
2022-09-12T05:39:55.738Z,18.91
2022-09-12T05:41:55.826Z,18.89
2022-09-12T05:43:55.939Z,18.95
2022-09-12T05:46:55.236Z,18.99
2022-09-12T05:48:56.730Z,19.01
2022-09-12T05:51:55.215Z,19.02
2022-09-12T05:53:55.732Z,18.99
2022-09-12T05:56:54.311Z,18.96
2022-09-12T05:58:55.233Z,19.01
2022-09-12T06:00:55.230Z,19.02
2022-09-12T06:02:55.616Z,19.09
2022-09-12T06:05:55.256Z,19.12
2022-09-12T06:08:55.221Z,19.15
2022-09-12T06:10:57.311Z,19.15
2022-09-12T06:14:55.235Z,19.15
2022-09-12T06:17:55.255Z,19.2
2022-09-12T06:20:55.225Z,19.04
2022-09-12T06:22:55.599Z,19.15
2022-09-12T06:24:57.923Z,19.17
2022-09-12T06:27:55.734Z,19.24
2022-09-12T06:31:55.832Z,19.52
2022-09-12T06:34:55.874Z,19.61
2022-09-12T06:37:55.730Z,19.64
2022-09-12T06:39:56.025Z,19.67
2022-09-12T06:42:55.253Z,19.7
2022-09-12T06:45:55.304Z,19.77
2022-09-12T06:47:55.954Z,19.81
2022-09-12T06:50:55.294Z,19.84
2022-09-12T06:53:55.645Z,19.91
2022-09-12T06:55:55.658Z,19.95
2022-09-12T06:58:55.615Z,19.95
2022-09-12T07:00:59.000Z,19.94
2022-09-12T07:03:54.328Z,19.98
2022-09-12T07:05:55.250Z,20.03
2022-09-12T07:07:55.444Z,20.08
2022-09-12T07:10:55.252Z,20.12
2022-09-12T07:12:55.262Z,20.14
2022-09-12T07:15:55.759Z,20.12
2022-09-12T07:18:55.257Z,20.19
2022-09-12T07:20:55.302Z,20.24
2022-09-12T07:23:55.320Z,20.29
2022-09-12T07:26:55.294Z,20.33
2022-09-12T07:29:00.682Z,20.36
2022-09-12T07:31:55.833Z,20.41
2022-09-12T07:33:56.347Z,20.44
2022-09-12T07:36:54.316Z,20.5
2022-09-12T07:38:57.504Z,20.52
2022-09-12T07:41:55.234Z,20.57
2022-09-12T07:43:55.320Z,20.6
2022-09-12T07:45:56.141Z,20.63
2022-09-12T07:48:55.537Z,20.67
2022-09-12T07:50:56.050Z,20.71
2022-09-12T07:53:55.323Z,20.74
2022-09-12T07:56:55.247Z,20.78
2022-09-12T07:58:55.262Z,20.81
2022-09-12T08:01:55.267Z,20.84
2022-09-12T08:03:55.930Z,20.89
2022-09-12T08:06:55.256Z,20.96
2022-09-12T08:08:55.762Z,21
2022-09-12T08:11:56.079Z,21.05
2022-09-12T08:14:55.803Z,21.07
2022-09-12T08:17:55.755Z,21.13
2022-09-12T08:19:55.848Z,21.16
2022-09-12T08:22:55.273Z,21.19
2022-09-12T08:25:55.510Z,21.24
2022-09-12T08:28:55.850Z,21.27
2022-09-12T08:30:56.303Z,21.29
2022-09-12T08:33:55.860Z,21.35
2022-09-12T08:35:55.976Z,21.37
2022-09-12T08:38:58.689Z,21.4
2022-09-12T08:40:55.266Z,21.42
2022-09-12T08:43:56.643Z,21.42
2022-09-12T08:45:56.091Z,21.45
2022-09-12T08:48:55.266Z,21.5
2022-09-12T08:50:55.860Z,21.53
2022-09-12T08:54:55.375Z,21.62
2022-09-12T08:56:55.836Z,21.64
2022-09-12T08:58:55.830Z,21.68
2022-09-12T09:01:55.327Z,21.63
2022-09-12T09:03:56.135Z,21.63
2022-09-12T09:06:55.327Z,21.72
2022-09-12T09:08:55.793Z,21.76
2022-09-12T09:11:55.293Z,21.83
2022-09-12T09:14:55.367Z,21.88
2022-09-12T09:17:55.279Z,21.92
2022-09-12T09:19:56.100Z,21.95
2022-09-12T09:22:55.495Z,22.01
2022-09-12T09:25:55.326Z,22.05
2022-09-12T09:28:55.322Z,22.07
2022-09-12T09:30:56.148Z,22.1
2022-09-12T09:33:55.484Z,22.15
2022-09-12T09:35:55.762Z,22.18
2022-09-12T09:38:55.268Z,22.22
2022-09-12T09:40:55.308Z,22.27
2022-09-12T09:42:55.305Z,22.34
2022-09-12T09:44:55.432Z,22.38
2022-09-12T09:48:54.347Z,22.35
2022-09-12T09:50:55.540Z,22.32
2022-09-12T09:53:55.284Z,22.3
2022-09-12T09:56:56.144Z,22.32
2022-09-12T09:59:54.378Z,22.35
2022-09-12T10:01:55.331Z,22.42
2022-09-12T10:03:55.407Z,22.53
2022-09-12T10:05:55.531Z,22.61
2022-09-12T10:07:56.261Z,22.67
2022-09-12T10:10:55.689Z,22.75
2022-09-12T10:13:55.712Z,22.79
2022-09-12T10:16:55.293Z,22.83
2022-09-12T10:18:55.311Z,22.85
2022-09-12T10:20:55.566Z,22.89
2022-09-12T10:23:55.573Z,22.97
2022-09-12T10:26:56.897Z,23.03
2022-09-12T10:28:55.780Z,23.08
2022-09-12T10:31:55.290Z,23.13
2022-09-12T10:34:55.334Z,23.19
2022-09-12T10:36:55.749Z,23.23
2022-09-12T10:39:55.318Z,23.27
2022-09-12T10:42:55.315Z,23.3
2022-09-12T10:44:55.674Z,23.32
2022-09-12T10:47:55.353Z,23.38
2022-09-12T10:49:56.100Z,23.41
2022-09-12T10:52:55.317Z,23.47
2022-09-12T10:55:55.313Z,23.58
2022-09-12T10:57:55.823Z,23.64
2022-09-12T10:59:55.895Z,23.71
2022-09-12T11:01:56.098Z,23.8
2022-09-12T11:04:54.415Z,23.91
2022-09-12T11:07:55.966Z,24.04
2022-09-12T11:10:55.289Z,24.19
2022-09-12T11:13:55.524Z,24.33
2022-09-12T11:15:55.565Z,24.44
2022-09-12T11:18:55.634Z,24.67
2022-09-12T11:21:55.318Z,24.88
2022-09-12T11:23:55.733Z,24.98
2022-09-12T11:26:55.324Z,25.09
2022-09-12T11:28:55.675Z,25.17
2022-09-12T11:31:56.109Z,25.29
2022-09-12T11:34:56.074Z,25.39
2022-09-12T11:37:55.850Z,25.51
2022-09-12T11:40:55.329Z,25.63
2022-09-12T11:43:56.249Z,25.75
2022-09-12T11:46:56.087Z,25.9
2022-09-12T11:49:55.846Z,26.05
2022-09-12T11:52:55.319Z,26.18
2022-09-12T11:54:55.679Z,26.27
2022-09-12T11:57:55.529Z,26.37
2022-09-12T11:59:55.995Z,26.44
2022-09-12T12:02:56.015Z,26.54
2022-09-12T12:05:55.727Z,26.74
2022-09-12T12:08:55.350Z,27.04
2022-09-12T12:11:56.048Z,27.13
2022-09-12T12:15:55.466Z,27.36
2022-09-12T12:18:55.353Z,27.42
2022-09-12T12:20:55.364Z,27.52
2022-09-12T12:23:55.339Z,27.67
2022-09-12T12:25:55.374Z,27.71
2022-09-12T12:28:55.350Z,27.82
2022-09-12T12:30:55.646Z,27.99
2022-09-12T12:33:55.376Z,28.19
2022-09-12T12:36:55.357Z,28.28
2022-09-12T12:39:55.725Z,28.41
2022-09-12T12:41:56.128Z,28.48
2022-09-12T12:44:56.024Z,28.57
2022-09-12T12:47:55.322Z,28.86
2022-09-12T12:49:55.845Z,28.92
2022-09-12T12:52:55.610Z,29.14
2022-09-12T12:55:55.352Z,29.18
2022-09-12T12:58:55.329Z,29.21
2022-09-12T13:00:55.571Z,29.21
2022-09-12T13:03:55.711Z,29.3
2022-09-12T13:06:55.693Z,29.31
2022-09-12T13:09:55.328Z,29.28
2022-09-12T13:11:55.383Z,29.24
2022-09-12T13:14:55.897Z,29.35
2022-09-12T13:17:55.952Z,29.48
2022-09-12T13:20:55.851Z,29.74
2022-09-12T13:22:56.083Z,29.88
2022-09-12T13:25:55.663Z,29.99
2022-09-12T13:28:55.483Z,30.05
2022-09-12T13:31:56.185Z,30.07
2022-09-12T13:34:55.850Z,30.09
2022-09-12T13:37:55.606Z,30.17
2022-09-12T13:39:55.938Z,30.23
2022-09-12T13:42:55.919Z,30.28
2022-09-12T13:49:55.934Z,30.61
2022-09-12T13:52:55.348Z,30.74
2022-09-12T13:54:55.435Z,30.83
2022-09-12T13:57:55.378Z,30.88
2022-09-12T13:59:55.449Z,30.93
2022-09-12T14:03:58.608Z,31.01
2022-09-12T14:05:55.525Z,31.04
2022-09-12T14:08:55.502Z,31.15
2022-09-12T14:11:55.392Z,31.26
2022-09-12T14:13:56.140Z,31.38
2022-09-12T14:16:55.406Z,31.51
2022-09-12T14:18:55.594Z,31.44
2022-09-12T14:21:55.435Z,31.56
2022-09-12T14:23:55.529Z,31.61
2022-09-12T14:30:56.105Z,31.65
2022-09-12T14:33:55.359Z,31.63
2022-09-12T14:35:55.653Z,31.64
2022-09-12T14:38:55.743Z,31.64
2022-09-12T14:40:55.828Z,31.59
2022-09-12T14:43:55.410Z,31.36
2022-09-12T14:46:55.454Z,31.22
2022-09-12T14:48:56.267Z,31.11
2022-09-12T14:51:55.358Z,30.87
2022-09-12T14:53:55.581Z,30.72
2022-09-12T14:55:56.195Z,30.61
2022-09-12T14:58:55.449Z,30.62
2022-09-12T15:01:55.453Z,30.76
2022-09-12T15:03:56.139Z,30.84
2022-09-12T15:06:55.374Z,31.01
2022-09-12T15:08:55.410Z,31.19
2022-09-12T15:10:55.383Z,31.29
2022-09-12T15:13:56.010Z,31.59
2022-09-12T15:16:56.219Z,31.66
2022-09-12T15:18:56.268Z,31.66
2022-09-12T15:21:55.409Z,31.81
2022-09-12T15:24:55.518Z,31.95
2022-09-12T15:26:55.965Z,32.09
2022-09-12T15:28:56.126Z,32.18
2022-09-12T15:31:55.729Z,32.34
2022-09-12T15:34:55.430Z,32.41
2022-09-12T15:37:55.400Z,32.43
2022-09-12T15:40:56.066Z,32.37
2022-09-12T15:42:56.296Z,32.33
2022-09-12T15:45:54.616Z,32.31
2022-09-12T15:47:55.413Z,32.28
2022-09-12T15:50:55.672Z,32.25
2022-09-12T15:53:55.806Z,32.21
2022-09-12T15:57:55.861Z,32.23
2022-09-12T16:00:55.884Z,32.25
2022-09-12T16:03:55.405Z,32.25
2022-09-12T16:05:56.185Z,32.27
2022-09-12T16:08:55.485Z,32.33
2022-09-12T16:11:55.397Z,32.39
2022-09-12T16:13:56.239Z,32.43
2022-09-12T16:15:56.391Z,32.45
2022-09-12T16:18:55.419Z,32.47
2022-09-12T16:20:55.497Z,32.53
2022-09-12T16:23:55.862Z,32.56
2022-09-12T16:26:59.156Z,32.55
2022-09-12T16:29:55.426Z,32.54
2022-09-12T16:32:55.457Z,32.5
2022-09-12T16:34:55.464Z,32.49
2022-09-12T16:37:55.712Z,32.43
2022-09-12T16:39:56.061Z,32.41
2022-09-12T16:42:55.448Z,32.31
2022-09-12T16:44:55.932Z,32.25
2022-09-12T16:47:55.424Z,32.02
2022-09-12T16:49:56.085Z,31.82
2022-09-12T16:52:55.447Z,31.57
2022-09-12T16:55:55.415Z,31.29
2022-09-12T16:57:55.414Z,31.11
2022-09-12T16:59:55.463Z,31.02
2022-09-12T17:01:55.534Z,31
2022-09-12T17:03:55.542Z,30.97
2022-09-12T17:06:55.420Z,30.88
2022-09-12T17:08:55.423Z,30.75
2022-09-12T17:10:55.453Z,30.62
2022-09-12T17:12:55.458Z,30.49
2022-09-12T17:15:55.491Z,30.31
2022-09-12T17:17:56.064Z,30.2
2022-09-12T17:20:55.475Z,29.99
2022-09-12T17:24:55.442Z,29.72
2022-09-12T17:26:55.460Z,29.6
2022-09-12T17:29:55.493Z,29.41
2022-09-12T17:31:55.490Z,29.27
2022-09-12T17:34:55.476Z,29.1
2022-09-12T17:36:55.844Z,29
2022-09-12T17:40:59.659Z,28.82
2022-09-12T17:42:59.366Z,28.71
2022-09-12T17:45:55.673Z,28.54
2022-09-12T17:48:55.967Z,28.4
2022-09-12T17:51:56.098Z,28.24
2022-09-12T17:54:57.316Z,28.09
2022-09-12T17:56:56.674Z,28
2022-09-12T17:59:56.926Z,27.85
2022-09-12T18:02:55.505Z,27.69
2022-09-12T18:04:55.666Z,27.55
2022-09-12T18:07:56.224Z,27.36
2022-09-12T18:10:55.483Z,27.26
2022-09-12T18:13:55.485Z,27.09
2022-09-12T18:15:55.499Z,26.97
2022-09-12T18:17:55.492Z,26.93
2022-09-12T18:19:55.501Z,26.84
2022-09-12T18:21:55.570Z,26.79
2022-09-12T18:24:56.031Z,26.65
2022-09-12T18:26:56.143Z,26.59
2022-09-12T18:30:17.485Z,26.48
2022-09-12T18:31:56.038Z,26.38
2022-09-12T18:34:55.560Z,26.29
2022-09-12T18:37:55.846Z,26.24
2022-09-12T18:40:55.608Z,26.18
2022-09-12T18:43:56.351Z,26.16
2022-09-12T18:45:56.569Z,26.12
2022-09-12T18:48:55.517Z,26.03
2022-09-12T18:50:55.988Z,25.99
2022-09-12T18:52:59.568Z,25.98
2022-09-12T18:55:55.975Z,25.81
2022-09-12T18:58:57.694Z,25.61
2022-09-12T19:01:55.535Z,25.66
2022-09-12T19:03:55.679Z,25.68
2022-09-12T19:06:56.136Z,25.63
2022-09-12T19:08:56.249Z,25.59
2022-09-12T19:11:55.789Z,25.49
2022-09-12T19:14:55.527Z,25.4
2022-09-12T19:16:55.516Z,25.34
2022-09-12T19:19:55.531Z,25.28
2022-09-12T19:22:55.569Z,25.25
2022-09-12T19:25:55.517Z,25.22
2022-09-12T19:27:55.532Z,25.24
2022-09-12T19:31:55.493Z,25.22
2022-09-12T19:33:55.849Z,25.25
2022-09-12T19:36:55.716Z,25.12
2022-09-12T19:39:55.516Z,25.02
2022-09-12T19:41:56.139Z,24.94
2022-09-12T19:44:55.509Z,24.83
2022-09-12T19:46:55.532Z,24.79
2022-09-12T19:48:55.722Z,24.79
2022-09-12T19:50:56.094Z,24.75
2022-09-12T19:53:55.521Z,24.79
2022-09-12T19:55:55.838Z,24.83
2022-09-12T19:57:56.125Z,24.81
2022-09-12T20:00:55.919Z,24.75
2022-09-12T20:03:55.511Z,24.67
2022-09-12T20:06:55.501Z,24.69
2022-09-12T20:08:55.567Z,24.62
2022-09-12T20:11:56.216Z,24.48
2022-09-12T20:14:55.902Z,24.43
2022-09-12T20:17:56.371Z,24.36
2022-09-12T20:20:55.540Z,24.35
2022-09-12T20:23:55.541Z,24.35
2022-09-12T20:26:55.982Z,24.48
2022-09-12T20:29:55.520Z,24.26
2022-09-12T20:31:56.191Z,24.13
2022-09-12T20:34:56.272Z,24.11
2022-09-12T20:37:56.026Z,24.04
2022-09-12T20:40:55.640Z,24.02
2022-09-12T20:43:55.510Z,23.99
2022-09-12T20:45:55.903Z,24.04
2022-09-12T20:48:55.552Z,24.05
2022-09-12T20:50:56.295Z,23.98
2022-09-12T20:53:55.485Z,23.85
2022-09-12T20:55:55.551Z,23.86
2022-09-12T20:57:56.339Z,23.88
2022-09-12T21:00:55.464Z,23.98
2022-09-12T21:02:55.536Z,23.99
2022-09-12T21:04:55.518Z,23.94
2022-09-12T21:06:56.207Z,23.82
2022-09-12T21:09:55.900Z,23.9
2022-09-12T21:12:55.541Z,23.9
2022-09-12T21:15:55.540Z,23.8
2022-09-12T21:17:55.517Z,23.85
2022-09-12T21:20:55.532Z,23.78
2022-09-12T21:22:56.347Z,23.82
2022-09-12T21:25:56.183Z,23.68
2022-09-12T21:28:56.017Z,23.63
2022-09-12T21:31:55.690Z,23.57
2022-09-12T21:34:55.987Z,23.61
2022-09-12T21:37:55.499Z,23.57
2022-09-12T21:39:55.579Z,23.47
2022-09-12T21:41:55.537Z,23.31
2022-09-12T21:43:56.414Z,23.28
2022-09-12T21:46:55.827Z,23.2
2022-09-12T21:48:55.869Z,23.24
2022-09-12T21:51:55.610Z,23.24
2022-09-12T21:55:55.632Z,23.14
2022-09-12T21:57:55.928Z,23.12
2022-09-12T22:00:56.711Z,23.13
2022-09-12T22:03:55.547Z,23.2
2022-09-12T22:05:55.558Z,23.16
2022-09-12T22:07:55.597Z,23.18
2022-09-12T22:10:55.673Z,23.1
2022-09-12T22:13:55.533Z,23
2022-09-12T22:16:55.558Z,22.98
2022-09-12T22:18:55.569Z,22.85
2022-09-12T22:20:55.586Z,22.78
2022-09-12T22:23:56.104Z,22.73
2022-09-12T22:26:55.584Z,22.73
2022-09-12T22:29:56.102Z,22.79
2022-09-12T22:32:54.643Z,22.76
2022-09-12T22:35:02.193Z,22.75
2022-09-12T22:37:56.022Z,22.82
2022-09-12T22:40:55.579Z,22.77
2022-09-12T22:43:55.556Z,22.72
2022-09-12T22:45:55.590Z,22.66
2022-09-12T22:48:55.542Z,22.61
2022-09-12T22:50:55.770Z,22.6
2022-09-12T22:53:56.038Z,22.64
2022-09-12T22:56:56.425Z,22.67
2022-09-12T22:59:55.550Z,22.65
2022-09-12T23:02:55.593Z,22.71
2022-09-12T23:04:56.261Z,22.72
2022-09-12T23:07:55.564Z,22.58
2022-09-12T23:09:56.477Z,22.63
2022-09-12T23:12:55.582Z,22.61
2022-09-12T23:15:55.613Z,22.57
2022-09-12T23:18:56.208Z,22.51
2022-09-12T23:20:56.455Z,22.57
2022-09-12T23:23:55.579Z,22.52
2022-09-12T23:25:55.855Z,22.44
2022-09-12T23:27:56.112Z,22.42
2022-09-12T23:30:55.552Z,22.49
2022-09-12T23:32:55.947Z,22.65
2022-09-12T23:34:56.310Z,22.69
2022-09-12T23:37:55.572Z,22.66
2022-09-12T23:39:55.641Z,22.62
2022-09-12T23:41:55.705Z,22.65
2022-09-12T23:44:55.710Z,22.62
2022-09-12T23:47:55.547Z,22.47
2022-09-12T23:49:55.611Z,22.33
2022-09-12T23:51:55.600Z,22.29
2022-09-12T23:54:56.200Z,22.35
2022-09-12T23:58:55.575Z,22.33
